Time;durP1;ratioP1;P1;durP2;ratioP2;P2;SDS_P1;SDS_P2;PMS_P1;PMS_P2;Temp;Humidity;BMP_temperature;BMP_pressure;BME280_temperature;BME280_humidity;BME280_pressure;Samples;Min_cycle;Max_cycle;Signal;HPM_P1;HPM_P2
2023/10/16 10:59:39;;;;;;;3.05;1.27;;;17.30;99.90;;;;;;5059674;28;20446;-65
2023/10/16 11:02:20;;;;;;;1.83;0.80;;;17.30;99.90;;;;;;5045314;28;20080;-66
2023/10/16 11:04:54;;;;;;;1.27;0.50;;;17.70;99.90;;;;;;5056506;28;20027;-67
2023/10/16 11:07:39;;;;;;;1.75;0.40;;;18.00;99.90;;;;;;5035036;28;20025;-64
2023/10/16 11:10:06;;;;;;;3.35;0.75;;;18.60;99.90;;;;;;5047449;28;20508;-65
2023/10/16 11:12:32;;;;;;;2.60;0.90;;;19.60;99.90;;;;;;5040128;28;20107;-65
2023/10/16 11:14:58;;;;;;;2.78;0.43;;;20.70;99.90;;;;;;5042518;28;20120;-66
2023/10/16 11:17:35;;;;;;;1.08;0.35;;;21.30;99.90;;;;;;5047179;28;20452;-66
2023/10/16 11:20:27;;;;;;;0.82;0.35;;;21.50;99.90;;;;;;5047559;28;20071;-66
2023/10/16 11:22:56;;;;;;;0.50;0.28;;;22.40;99.90;;;;;;5048523;28;20017;-67
2023/10/16 11:25:28;;;;;;;;;;;24.00;99.90;;;;;;5036149;28;20024;-67
2023/10/16 11:27:57;;;;;;;1.48;0.40;;;25.10;99.90;;;;;;5047530;28;19999;-67
2023/10/16 11:30:32;;;;;;;1.95;0.43;;;26.10;97.00;;;;;;5047652;28;20108;-64
2023/10/16 11:32:58;;;;;;;2.45;0.40;;;27.00;94.50;;;;;;5046549;28;20033;-63
2023/10/16 11:35:26;;;;;;;1.55;0.35;;;27.80;92.10;;;;;;5042660;28;20041;-67
2023/10/16 11:37:59;;;;;;;1.85;0.65;;;28.00;90.10;;;;;;5045417;28;20104;-67
2023/10/16 11:40:33;;;;;;;2.42;0.47;;;28.10;86.50;;;;;;5040055;28;20028;-68
2023/10/16 11:43:00;;;;;;;1.73;0.30;;;28.00;80.20;;;;;;5046153;28;20017;-68
2023/10/16 11:45:30;;;;;;;1.73;0.50;;;27.10;79.20;;;;;;5038987;28;20022;-68
2023/10/16 11:50:41;;;;;;;1.70;0.30;;;24.90;79.00;;;;;;5047500;28;20083;-69
2023/10/16 11:53:07;;;;;;;1.88;0.50;;;24.00;79.60;;;;;;5041550;28;20101;-69
2023/10/16 11:55:37;;;;;;;1.35;0.35;;;23.30;80.00;;;;;;5036732;28;20057;-69
2023/10/16 11:58:11;;;;;;;1.52;0.38;;;22.80;80.10;;;;;;5035419;28;20072;-68
2023/10/16 12:00:42;;;;;;;3.17;0.50;;;22.50;80.50;;;;;;5030822;28;20046;-68
2023/10/16 12:03:14;;;;;;;1.35;0.40;;;22.30;80.60;;;;;;5028143;28;20477;-68
2023/10/16 12:05:42;;;;;;;2.05;0.70;;;22.20;79.70;;;;;;5044882;28;20037;-69
2023/10/16 12:08:11;;;;;;;1.80;0.40;;;22.10;79.70;;;;;;5047878;28;20155;-68
2023/10/16 12:10:37;;;;;;;1.00;0.60;;;22.00;79.60;;;;;;5030333;28;20026;-69
2023/10/16 12:13:03;;;;;;;1.88;0.60;;;22.00;77.80;;;;;;5032659;28;20094;-68
2023/10/16 12:15:29;;;;;;;2.38;0.50;;;21.80;77.80;;;;;;5029574;28;20022;-69
2023/10/16 12:17:55;;;;;;;1.50;0.80;;;21.70;78.10;;;;;;5030787;28;20171;-68
2023/10/16 12:20:30;;;;;;;1.80;0.40;;;21.60;78.40;;;;;;5033613;28;20108;-68
2023/10/16 12:22:56;;;;;;;3.08;0.32;;;21.50;78.40;;;;;;5034003;28;20021;-68
2023/10/16 12:25:23;;;;;;;1.77;0.30;;;21.40;78.40;;;;;;5015608;28;20167;-68
2023/10/16 12:27:50;;;;;;;1.20;0.30;;;21.40;78.00;;;;;;5031468;28;20056;-69
2023/10/16 12:30:17;;;;;;;1.45;0.30;;;21.40;77.70;;;;;;5033581;28;20057;-68
2023/10/16 12:32:43;;;;;;;1.58;0.28;;;21.40;77.50;;;;;;5033690;28;20056;-69
2023/10/16 12:35:09;;;;;;;1.42;0.30;;;21.40;77.40;;;;;;5032849;28;20477;-68
2023/10/16 12:37:35;;;;;;;3.03;0.40;;;21.30;77.40;;;;;;5033522;28;20021;-69
2023/10/16 12:40:24;;;;;;;1.30;0.38;;;21.40;77.10;;;;;;5032917;28;20068;-69
2023/10/16 12:42:46;;;;;;;1.17;0.30;;;21.30;77.00;;;;;;5032528;28;20087;-68
2023/10/16 12:45:12;;;;;;;0.68;0.35;;;21.20;76.90;;;;;;5029837;28;20755;-69
2023/10/16 12:47:38;;;;;;;1.48;0.40;;;21.20;77.10;;;;;;5033189;28;20025;-68
2023/10/16 12:50:05;;;;;;;1.73;0.65;;;21.20;77.00;;;;;;5031151;28;20052;-68
2023/10/16 12:52:31;;;;;;;2.72;0.60;;;21.20;75.40;;;;;;5029434;28;20048;-68
2023/10/16 12:54:57;;;;;;;1.10;0.32;;;21.20;73.90;;;;;;5030997;28;20447;-69
2023/10/16 12:57:24;;;;;;;3.67;0.50;;;21.00;71.30;;;;;;5022862;28;20054;-68
2023/10/16 12:59:49;;;;;;;1.08;0.30;;;20.80;70.60;;;;;;5029648;28;20026;-68
2023/10/16 13:02:24;;;;;;;1.27;0.30;;;20.60;71.80;;;;;;5030388;28;20039;-68
2023/10/16 13:04:51;;;;;;;1.83;0.70;;;20.50;72.90;;;;;;5021357;28;20474;-68
2023/10/16 13:07:17;;;;;;;1.15;0.38;;;20.50;73.80;;;;;;5024178;28;20105;-69
2023/10/16 13:09:43;;;;;;;1.23;0.40;;;20.60;74.10;;;;;;5030472;28;20026;-69
2023/10/16 13:12:10;;;;;;;1.15;0.30;;;20.70;72.10;;;;;;5025971;28;20563;-68
2023/10/16 13:14:35;;;;;;;1.83;0.40;;;20.60;71.70;;;;;;5031062;28;20075;-69
2023/10/16 13:17:01;;;;;;;2.53;0.60;;;20.60;72.10;;;;;;5026718;28;20013;-69
2023/10/16 13:19:27;;;;;;;1.08;0.30;;;20.60;72.10;;;;;;5032600;28;20018;-69
2023/10/16 13:21:53;;;;;;;0.70;0.30;;;20.50;72.10;;;;;;5031641;28;20028;-68
2023/10/16 13:24:23;;;;;;;0.60;0.25;;;20.40;72.70;;;;;;5027304;28;20080;-69
2023/10/16 13:26:52;;;;;;;1.38;0.40;;;20.40;73.00;;;;;;5026417;28;20013;-68
2023/10/16 13:29:18;;;;;;;0.60;0.20;;;20.40;73.30;;;;;;5019698;28;20022;-68
2023/10/16 13:31:45;;;;;;;0.98;0.30;;;20.40;73.40;;;;;;5024792;28;20045;-68
2023/10/16 13:34:13;;;;;;;1.35;0.30;;;20.40;73.50;;;;;;5026014;28;20017;-69
2023/10/16 13:37:01;;;;;;;0.88;0.30;;;20.30;73.70;;;;;;5026149;28;20017;-68
2023/10/16 13:39:38;;;;;;;1.38;0.30;;;20.20;73.40;;;;;;5029221;28;20030;-68
2023/10/16 13:42:08;;;;;;;1.85;0.25;;;20.00;74.00;;;;;;5032419;28;20021;-68
2023/10/16 13:44:35;;;;;;;1.40;0.32;;;19.80;74.50;;;;;;5030302;28;20151;-68
2023/10/16 13:47:05;;;;;;;1.58;0.30;;;19.60;74.80;;;;;;5025224;28;20021;-69
2023/10/16 13:49:41;;;;;;;1.05;0.52;;;19.50;75.20;;;;;;5031887;28;20452;-68
2023/10/16 13:52:11;;;;;;;1.33;0.40;;;19.30;75.50;;;;;;5032471;28;20041;-69
2023/10/16 13:54:40;;;;;;;1.10;0.30;;;19.20;76.00;;;;;;5031330;28;20078;-69
2023/10/16 13:57:07;;;;;;;;;;;19.00;76.60;;;;;;5032292;28;20049;-68
2023/10/16 13:59:35;;;;;;;1.90;0.30;;;18.80;76.90;;;;;;5032184;28;19916;-69
2023/10/16 14:02:05;;;;;;;1.93;0.50;;;18.60;77.50;;;;;;5031326;28;20452;-69
2023/10/16 14:04:33;;;;;;;;;;;18.50;77.70;;;;;;5025895;28;20260;-68
2023/10/16 14:06:59;;;;;;;1.35;0.30;;;18.40;77.90;;;;;;5027348;28;19905;-69
2023/10/16 14:09:28;;;;;;;2.22;0.50;;;18.20;78.20;;;;;;5030931;28;20037;-69
2023/10/16 14:11:58;;;;;;;1.20;0.20;;;18.20;78.30;;;;;;5031712;28;20029;-69
2023/10/16 14:14:26;;;;;;;2.50;0.40;;;18.10;78.40;;;;;;5023743;28;20026;-69
2023/10/16 14:16:53;;;;;;;1.58;0.30;;;18.00;78.70;;;;;;5026315;28;20152;-68
2023/10/16 14:19:23;;;;;;;1.63;0.30;;;17.90;79.00;;;;;;5022789;28;20032;-68
2023/10/16 14:21:51;;;;;;;;;;;17.90;79.30;;;;;;5020468;28;20033;-68
2023/10/16 14:24:18;;;;;;;1.30;0.30;;;17.80;79.40;;;;;;5019755;28;19909;-69
2023/10/16 14:26:49;;;;;;;1.33;0.30;;;17.70;80.00;;;;;;5030854;28;20132;-69
2023/10/16 14:29:15;;;;;;;1.75;0.35;;;17.70;80.10;;;;;;5031448;28;20393;-69
2023/10/16 14:31:41;;;;;;;1.50;1.25;;;17.70;80.20;;;;;;5031033;28;20017;-68
2023/10/16 14:34:07;;;;;;;1.15;0.30;;;17.80;80.30;;;;;;5030289;28;20433;-69
2023/10/16 14:36:32;;;;;;;1.35;0.30;;;17.90;80.20;;;;;;5031261;28;20486;-68
2023/10/16 14:39:03;;;;;;;1.77;0.30;;;18.10;80.00;;;;;;5031533;28;20057;-68
2023/10/16 14:41:29;;;;;;;0.82;0.30;;;18.10;79.40;;;;;;5031171;28;20064;-68
2023/10/16 14:43:55;;;;;;;1.55;0.30;;;18.20;79.50;;;;;;5030972;28;20025;-68
2023/10/16 14:46:21;;;;;;;1.95;0.30;;;18.10;79.40;;;;;;5020593;28;20014;-68
2023/10/16 14:48:47;;;;;;;1.63;0.30;;;18.10;79.40;;;;;;5031266;28;20028;-68
2023/10/16 14:51:14;;;;;;;1.52;0.50;;;18.00;79.50;;;;;;5025951;28;20120;-69
2023/10/16 14:53:41;;;;;;;1.60;0.32;;;17.90;79.70;;;;;;5026639;28;20018;-68
2023/10/16 14:56:07;;;;;;;0.88;0.30;;;17.80;79.90;;;;;;5029840;28;20049;-68
2023/10/16 14:58:34;;;;;;;1.38;0.30;;;17.70;80.10;;;;;;5020253;28;20092;-68
2023/10/16 15:01:09;;;;;;;2.05;0.32;;;17.70;80.40;;;;;;5019329;28;20110;-69
2023/10/16 15:03:38;;;;;;;1.50;0.28;;;17.60;80.60;;;;;;5016574;28;20030;-68
2023/10/16 15:06:04;;;;;;;0.80;0.25;;;17.50;80.90;;;;;;5023493;28;20141;-69
2023/10/16 15:08:31;;;;;;;0.77;0.30;;;17.50;81.10;;;;;;5023148;28;20026;-68
2023/10/16 15:10:58;;;;;;;1.70;0.30;;;17.40;81.20;;;;;;5030734;28;20033;-69
2023/10/16 15:13:27;;;;;;;0.80;0.30;;;17.30;81.30;;;;;;5030405;28;20382;-68
2023/10/16 15:15:55;;;;;;;0.70;0.25;;;17.20;81.70;;;;;;5030250;28;20500;-68
2023/10/16 15:18:21;;;;;;;1.05;0.30;;;17.10;82.00;;;;;;5030412;28;20473;-68
2023/10/16 15:20:47;;;;;;;2.85;0.30;;;17.00;82.40;;;;;;5028759;28;20052;-68
2023/10/16 15:23:13;;;;;;;0.75;0.25;;;17.00;82.70;;;;;;5018544;28;20026;-68
2023/10/16 15:25:40;;;;;;;1.92;0.30;;;16.90;82.80;;;;;;5031011;28;20017;-68
2023/10/16 15:28:08;;;;;;;1.02;0.38;;;16.90;83.90;;;;;;5027990;28;20057;-68
2023/10/16 15:30:34;;;;;;;2.55;0.28;;;16.80;83.50;;;;;;5020386;28;20030;-68
2023/10/16 15:33:01;;;;;;;1.02;0.30;;;16.70;84.00;;;;;;5030489;28;20362;-68
2023/10/16 15:35:28;;;;;;;1.88;0.40;;;16.60;84.40;;;;;;5023303;28;20037;-68
2023/10/16 15:37:55;;;;;;;0.73;0.30;;;16.60;85.60;;;;;;5026430;28;20021;-69
2023/10/16 15:40:21;;;;;;;0.57;0.30;;;16.50;85.60;;;;;;5013043;28;20022;-68
2023/10/16 15:42:52;;;;;;;1.70;0.45;;;16.40;86.20;;;;;;5029086;28;20355;-68
2023/10/16 15:45:18;;;;;;;2.78;0.40;;;16.30;86.50;;;;;;5023763;28;20022;-68
2023/10/16 15:47:44;;;;;;;0.85;0.30;;;16.30;87.00;;;;;;5023971;28;20032;-68
2023/10/16 15:50:13;;;;;;;1.20;0.40;;;16.20;88.00;;;;;;5034820;28;20025;-69
2023/10/16 15:52:43;;;;;;;0.68;0.32;;;16.10;87.60;;;;;;5033996;28;20032;-68
2023/10/16 15:55:08;;;;;;;1.08;0.45;;;16.00;87.90;;;;;;5033923;28;20033;-68
2023/10/16 15:57:34;;;;;;;2.58;0.35;;;16.00;88.30;;;;;;5033886;28;20141;-68
2023/10/16 16:00:06;;;;;;;1.73;0.45;;;15.90;88.60;;;;;;5033840;28;20026;-68
2023/10/16 16:02:34;;;;;;;1.83;0.50;;;15.70;89.00;;;;;;5031359;28;20017;-68
2023/10/16 16:05:00;;;;;;;1.33;0.32;;;15.60;89.70;;;;;;5034363;28;20028;-68
2023/10/16 16:07:28;;;;;;;1.38;0.40;;;15.60;90.10;;;;;;5033859;28;20037;-68
2023/10/16 16:09:57;;;;;;;2.13;0.43;;;15.50;90.20;;;;;;5021163;28;20022;-68
2023/10/16 16:12:23;;;;;;;1.35;0.40;;;15.50;90.40;;;;;;5020363;28;20116;-68
2023/10/16 16:14:49;;;;;;;5.50;0.40;;;15.40;90.60;;;;;;5032817;28;20181;-68
2023/10/16 16:17:15;;;;;;;2.00;0.32;;;15.30;90.80;;;;;;5033928;28;20123;-68
2023/10/16 16:19:41;;;;;;;2.53;0.40;;;15.20;90.90;;;;;;5033441;28;20013;-68
2023/10/16 16:22:12;;;;;;;1.27;0.38;;;15.10;91.10;;;;;;5033757;28;20026;-68
2023/10/16 16:24:42;;;;;;;2.03;0.32;;;15.10;91.30;;;;;;5033078;28;20406;-68
2023/10/16 16:27:09;;;;;;;1.60;0.40;;;15.00;91.40;;;;;;5041419;28;20041;-68
2023/10/16 16:29:36;;;;;;;2.20;0.50;;;14.90;91.50;;;;;;5028357;28;20056;-68
2023/10/16 16:32:05;;;;;;;1.90;0.52;;;14.80;91.70;;;;;;5028551;28;20017;-68
2023/10/16 16:34:31;;;;;;;1.10;0.50;;;14.70;91.80;;;;;;5030270;28;20033;-68
2023/10/16 16:37:00;;;;;;;1.95;0.63;;;14.60;92.00;;;;;;5031995;28;20083;-68
2023/10/16 16:39:32;;;;;;;1.38;0.57;;;14.50;92.20;;;;;;5029338;28;20037;-68
2023/10/16 16:42:01;;;;;;;2.35;0.50;;;14.40;92.30;;;;;;5031391;28;20492;-68
2023/10/16 16:44:26;;;;;;;1.00;0.50;;;14.30;92.50;;;;;;5032129;28;20037;-68
2023/10/16 16:46:52;;;;;;;1.58;0.47;;;14.20;92.60;;;;;;5027014;28;20025;-68
2023/10/16 16:49:18;;;;;;;0.98;0.50;;;14.10;92.70;;;;;;5030736;28;20021;-68
2023/10/16 16:51:44;;;;;;;1.10;0.77;;;14.00;92.70;;;;;;5020293;28;20482;-68
2023/10/16 16:54:11;;;;;;;1.23;0.47;;;13.90;92.80;;;;;;5025027;28;20018;-68
2023/10/16 16:56:37;;;;;;;2.88;0.52;;;13.80;92.90;;;;;;5033252;28;20021;-68
2023/10/16 16:59:05;;;;;;;2.25;0.50;;;13.70;93.00;;;;;;5027899;28;20053;-68
2023/10/16 17:01:35;;;;;;;1.83;0.43;;;13.60;93.10;;;;;;5033186;28;20032;-68
2023/10/16 17:04:03;;;;;;;2.38;0.50;;;13.50;93.30;;;;;;5032630;28;20036;-68
2023/10/16 17:06:30;;;;;;;1.92;0.43;;;13.40;93.40;;;;;;5033012;28;20026;-68
2023/10/16 17:08:56;;;;;;;1.15;0.40;;;13.30;93.60;;;;;;5032345;28;20018;-68
2023/10/16 17:11:22;;;;;;;4.35;0.60;;;13.20;93.70;;;;;;5033252;28;20127;-68
2023/10/16 17:13:48;;;;;;;1.77;0.50;;;13.10;93.80;;;;;;5032392;28;20072;-68
2023/10/16 17:16:14;;;;;;;4.97;0.90;;;13.10;93.90;;;;;;5032919;28;20037;-68
2023/10/16 17:18:41;;;;;;;3.05;0.80;;;13.10;93.90;;;;;;5030888;28;20033;-68
2023/10/16 17:21:08;;;;;;;3.85;1.17;;;13.00;94.00;;;;;;5020333;28;20022;-68
2023/10/16 17:23:34;;;;;;;5.13;1.63;;;12.90;94.10;;;;;;5032218;28;20075;-68
2023/10/16 17:26:01;;;;;;;5.68;1.58;;;12.80;94.10;;;;;;5032473;28;20026;-68
2023/10/16 17:28:26;;;;;;;5.43;2.03;;;12.80;94.30;;;;;;5031995;28;20512;-68
2023/10/16 17:30:52;;;;;;;4.90;1.75;;;12.70;94.40;;;;;;5030961;28;20025;-68
2023/10/16 17:33:17;;;;;;;4.65;1.70;;;12.60;94.50;;;;;;5031707;28;20520;-68
2023/10/16 17:35:44;;;;;;;3.17;1.30;;;12.50;94.60;;;;;;5035879;28;20079;-68
2023/10/16 17:38:10;;;;;;;4.57;1.30;;;12.40;94.70;;;;;;5032127;28;20030;-68
2023/10/16 17:40:36;;;;;;;3.08;1.15;;;12.40;94.80;;;;;;5031297;28;20037;-68
2023/10/16 17:43:06;;;;;;;3.75;1.08;;;12.40;95.00;;;;;;5032547;28;20067;-68
2023/10/16 17:45:34;;;;;;;2.88;1.00;;;12.30;95.10;;;;;;5030777;28;20014;-68
2023/10/16 17:48:00;;;;;;;2.17;1.02;;;12.20;95.20;;;;;;5032151;28;20061;-68
2023/10/16 17:50:25;;;;;;;2.50;0.85;;;12.20;95.30;;;;;;5030640;28;20445;-68
2023/10/16 17:52:51;;;;;;;2.13;0.60;;;12.20;95.40;;;;;;5031393;28;20105;-68
2023/10/16 17:55:18;;;;;;;1.70;0.65;;;12.10;95.50;;;;;;5032100;28;20025;-68
2023/10/16 17:57:44;;;;;;;1.80;0.52;;;12.10;95.60;;;;;;5032521;28;20052;-68
2023/10/16 18:00:12;;;;;;;1.50;0.50;;;12.00;95.60;;;;;;5029406;28;20013;-68
2023/10/16 18:02:39;;;;;;;1.52;0.47;;;12.00;95.70;;;;;;5031577;28;20059;-68
2023/10/16 18:05:05;;;;;;;3.05;0.40;;;11.90;95.80;;;;;;5032155;28;20025;-68
2023/10/16 18:07:31;;;;;;;1.52;0.50;;;11.90;95.90;;;;;;5030294;28;20397;-68
2023/10/16 18:09:56;;;;;;;2.15;0.50;;;11.80;96.00;;;;;;5031010;28;20037;-68
2023/10/16 18:12:22;;;;;;;1.98;0.50;;;11.70;96.10;;;;;;5019153;28;20052;-68
2023/10/16 18:14:49;;;;;;;1.92;0.60;;;11.60;96.30;;;;;;5031482;28;20041;-68
2023/10/16 18:17:17;;;;;;;2.05;0.50;;;11.60;96.50;;;;;;5032073;28;20031;-68
2023/10/16 18:19:43;;;;;;;4.35;0.65;;;11.60;96.60;;;;;;5017400;28;20032;-68
2023/10/16 18:22:09;;;;;;;1.30;0.55;;;11.60;96.80;;;;;;5012072;28;20026;-69
2023/10/16 18:24:40;;;;;;;1.00;0.40;;;11.60;97.00;;;;;;5013096;28;20544;-68
2023/10/16 18:27:09;;;;;;;4.45;0.60;;;11.50;97.10;;;;;;5022764;28;20083;-68
2023/10/16 18:29:38;;;;;;;2.97;0.60;;;11.50;97.20;;;;;;5027766;28;20021;-68
2023/10/16 18:32:04;;;;;;;1.77;0.60;;;11.40;97.30;;;;;;5031333;28;20033;-68
2023/10/16 18:34:30;;;;;;;3.35;0.95;;;11.40;97.50;;;;;;5017828;28;20029;-68
2023/10/16 18:36:56;;;;;;;2.92;1.00;;;11.40;97.70;;;;;;5020971;28;20020;-68
2023/10/16 18:39:21;;;;;;;2.63;0.80;;;11.30;97.70;;;;;;5028529;28;20037;-68
2023/10/16 18:41:47;;;;;;;6.07;1.20;;;11.30;97.90;;;;;;5031894;28;20040;-68
2023/10/16 18:44:14;;;;;;;4.22;1.13;;;11.30;98.00;;;;;;5029523;28;20111;-68
2023/10/16 18:46:40;;;;;;;2.92;1.17;;;11.30;98.00;;;;;;5031333;28;20029;-68
2023/10/16 18:49:07;;;;;;;3.55;1.20;;;11.30;98.10;;;;;;5028372;28;20441;-68
2023/10/16 18:51:33;;;;;;;2.47;0.98;;;11.20;98.10;;;;;;5019270;28;20032;-68
2023/10/16 18:54:00;;;;;;;3.17;1.20;;;11.20;98.20;;;;;;5028637;28;20026;-68
2023/10/16 18:56:26;;;;;;;3.92;1.02;;;11.20;98.30;;;;;;5031305;28;20049;-68
2023/10/16 18:58:51;;;;;;;2.38;1.00;;;11.10;98.40;;;;;;5029402;28;20096;-68
2023/10/16 19:01:18;;;;;;;2.47;1.10;;;11.10;98.50;;;;;;5030145;28;20132;-68
2023/10/16 19:03:44;;;;;;;2.58;1.05;;;11.10;98.50;;;;;;5029081;28;20021;-68
2023/10/16 19:06:12;;;;;;;3.17;1.23;;;11.00;98.60;;;;;;5030901;28;20359;-68
2023/10/16 19:08:38;;;;;;;3.22;1.52;;;11.00;98.70;;;;;;5030243;28;20503;-68
2023/10/16 19:11:03;;;;;;;2.80;1.40;;;11.00;98.80;;;;;;5029059;28;20090;-68
2023/10/16 19:13:30;;;;;;;4.82;1.42;;;10.90;98.90;;;;;;5035311;28;20075;-68
2023/10/16 19:15:56;;;;;;;2.40;1.00;;;10.90;99.00;;;;;;5028426;28;20022;-68
2023/10/16 19:18:23;;;;;;;4.53;1.20;;;10.90;99.10;;;;;;5027717;28;20033;-68
2023/10/16 19:20:56;;;;;;;2.53;1.05;;;10.90;99.20;;;;;;5019694;28;20373;-68
2023/10/16 19:23:31;;;;;;;4.63;1.42;;;10.90;99.30;;;;;;5021236;28;20029;-68
2023/10/16 19:26:01;;;;;;;2.70;1.30;;;10.80;99.40;;;;;;5015319;28;20022;-68
2023/10/16 19:28:26;;;;;;;3.63;0.98;;;10.80;99.50;;;;;;5024936;28;20036;-68
2023/10/16 19:30:52;;;;;;;3.08;1.02;;;10.80;99.70;;;;;;5023890;28;20038;-68
2023/10/16 19:33:20;;;;;;;5.60;1.20;;;10.70;99.80;;;;;;5031739;28;20036;-68
2023/10/16 19:35:45;;;;;;;2.90;1.02;;;10.70;99.90;;;;;;5022015;28;20034;-68
2023/10/16 19:38:11;;;;;;;3.83;1.30;;;10.60;99.90;;;;;;5027661;28;20330;-68
2023/10/16 19:40:37;;;;;;;2.50;0.98;;;10.60;99.90;;;;;;5016070;28;20087;-68
2023/10/16 19:43:03;;;;;;;4.30;1.50;;;10.60;99.90;;;;;;5031617;28;20087;-68
2023/10/16 19:45:31;;;;;;;2.75;1.30;;;10.60;99.90;;;;;;5031893;28;20049;-68
2023/10/16 19:47:56;;;;;;;2.45;1.00;;;10.50;99.90;;;;;;5031405;28;20091;-68
2023/10/16 19:50:23;;;;;;;2.42;1.20;;;10.50;99.90;;;;;;5021515;28;20034;-68
2023/10/16 19:52:50;;;;;;;2.38;1.52;;;10.40;99.90;;;;;;5020790;28;20059;-68
2023/10/16 19:55:21;;;;;;;3.72;1.67;;;10.30;99.90;;;;;;5031409;28;20783;-68
2023/10/16 19:57:47;;;;;;;3.05;1.33;;;10.30;99.90;;;;;;5021421;28;20505;-68
2023/10/16 20:00:16;;;;;;;3.53;1.50;;;10.30;99.90;;;;;;5020000;28;20018;-68
2023/10/16 20:02:46;;;;;;;;;;;10.30;99.90;;;;;;5030285;28;20066;-68
2023/10/16 20:05:12;;;;;;;4.05;1.17;;;10.10;99.90;;;;;;5029023;28;19909;-68
2023/10/16 20:07:40;;;;;;;2.72;1.40;;;10.10;99.90;;;;;;5033270;28;20064;-68
2023/10/16 20:10:19;;;;;;;3.22;1.60;;;10.10;99.90;;;;;;5033252;28;20486;-68
2023/10/16 20:12:55;;;;;;;2.80;1.40;;;10.10;99.90;;;;;;5023400;28;20021;-68
2023/10/16 20:15:21;;;;;;;2.53;1.48;;;10.10;99.90;;;;;;5033874;28;20021;-68
2023/10/16 20:17:48;;;;;;;4.35;1.85;;;10.00;99.90;;;;;;5033115;28;20029;-68
2023/10/16 20:20:23;;;;;;;3.90;1.60;;;10.00;99.90;;;;;;5032859;28;20530;-68
2023/10/16 20:23:01;;;;;;;2.60;1.30;;;10.00;99.90;;;;;;5023072;28;20021;-68
2023/10/16 20:25:35;;;;;;;3.40;1.92;;;10.00;99.90;;;;;;5032838;28;20028;-68
2023/10/16 20:28:04;;;;;;;3.08;1.60;;;10.00;99.90;;;;;;5032279;28;20032;-68
2023/10/16 20:30:31;;;;;;;4.72;1.90;;;10.00;99.90;;;;;;5023861;28;20448;-68
2023/10/16 20:32:57;;;;;;;4.75;1.60;;;9.90;99.90;;;;;;5031707;28;20029;-68
2023/10/16 20:35:24;;;;;;;2.72;1.60;;;9.90;99.90;;;;;;5047635;28;20033;-68
2023/10/16 20:37:51;;;;;;;3.58;1.42;;;9.90;99.90;;;;;;5033175;28;20549;-68
2023/10/16 20:40:18;;;;;;;4.78;1.80;;;9.90;99.90;;;;;;5033519;28;20064;-68
2023/10/16 20:42:46;;;;;;;3.65;1.70;;;9.90;99.90;;;;;;5033230;28;20018;-68
2023/10/16 20:45:16;;;;;;;3.97;1.63;;;10.00;99.90;;;;;;5033089;28;20535;-68
2023/10/16 20:47:42;;;;;;;1.92;1.20;;;10.00;99.90;;;;;;5029673;28;20034;-68
2023/10/16 20:50:23;;;;;;;2.63;1.98;;;9.90;99.90;;;;;;5033483;28;20219;-68
2023/10/16 20:52:49;;;;;;;3.47;2.03;;;10.00;99.90;;;;;;5031329;28;20024;-68
2023/10/16 20:55:17;;;;;;;4.45;1.98;;;9.90;99.90;;;;;;5032919;28;20032;-68
2023/10/16 20:57:43;;;;;;;2.58;1.73;;;9.90;99.90;;;;;;5032349;28;20080;-68
2023/10/16 21:00:13;;;;;;;4.15;1.80;;;9.90;99.90;;;;;;5032498;28;20053;-68
2023/10/16 21:02:47;;;;;;;3.47;2.13;;;9.80;99.90;;;;;;5032880;28;20009;-68
2023/10/16 21:05:14;;;;;;;3.53;1.95;;;9.80;99.90;;;;;;5032636;28;20365;-68
2023/10/16 21:07:40;;;;;;;4.45;2.05;;;9.80;99.90;;;;;;5033215;28;20056;-68
2023/10/16 21:10:14;;;;;;;5.20;2.50;;;9.80;99.90;;;;;;5031160;28;20048;-68
2023/10/16 21:12:40;;;;;;;5.15;1.90;;;9.80;99.90;;;;;;5032985;28;20056;-68
2023/10/16 21:15:13;;;;;;;4.78;1.70;;;9.70;99.90;;;;;;5032482;28;20025;-68
2023/10/16 21:17:40;;;;;;;3.53;1.80;;;9.70;99.90;;;;;;5032646;28;20076;-68
2023/10/16 21:20:07;;;;;;;3.22;1.98;;;9.70;99.90;;;;;;5019130;28;20021;-68
2023/10/16 21:22:33;;;;;;;3.03;1.90;;;9.70;99.90;;;;;;5021779;28;20030;-68
2023/10/16 21:24:58;;;;;;;2.53;1.75;;;9.70;99.90;;;;;;5031006;28;20028;-68
2023/10/16 21:27:24;;;;;;;3.33;2.10;;;9.60;99.90;;;;;;5031384;28;20537;-68
2023/10/16 21:29:50;;;;;;;3.65;1.67;;;9.60;99.90;;;;;;5026943;28;20018;-68
2023/10/16 21:32:19;;;;;;;3.40;1.73;;;9.60;99.90;;;;;;5039033;28;20022;-68
2023/10/16 21:34:49;;;;;;;2.97;1.67;;;9.60;99.90;;;;;;5032101;28;20101;-68
2023/10/16 21:37:16;;;;;;;3.85;2.00;;;9.60;99.90;;;;;;5032182;28;20029;-68
2023/10/16 21:39:46;;;;;;;3.15;1.45;;;9.60;99.90;;;;;;5015900;28;20109;-68
2023/10/16 21:42:13;;;;;;;4.13;2.00;;;9.50;99.90;;;;;;5025409;28;20033;-68
2023/10/16 21:44:40;;;;;;;1.63;1.15;;;9.60;99.90;;;;;;5032006;28;20017;-68
2023/10/16 21:47:09;;;;;;;3.95;1.63;;;9.50;99.90;;;;;;5031993;28;20040;-68
2023/10/16 21:49:36;;;;;;;5.53;1.50;;;9.50;99.90;;;;;;5023573;28;20018;-68
2023/10/16 21:52:06;;;;;;;3.00;1.45;;;9.50;99.90;;;;;;5015667;28;20474;-68
2023/10/16 21:54:32;;;;;;;3.50;1.48;;;9.50;99.90;;;;;;5031143;28;20026;-68
2023/10/16 21:56:58;;;;;;;4.93;1.67;;;9.50;99.90;;;;;;5037712;28;20171;-67
2023/10/16 21:59:25;;;;;;;3.47;1.63;;;9.50;99.90;;;;;;5023232;28;20038;-68
2023/10/16 22:01:50;;;;;;;3.00;1.52;;;9.40;99.90;;;;;;5027779;28;20492;-68
2023/10/16 22:04:16;;;;;;;3.03;1.83;;;9.40;99.90;;;;;;5031112;28;20061;-68
2023/10/16 22:06:41;;;;;;;3.35;1.50;;;9.40;99.90;;;;;;5031938;28;20025;-68
2023/10/16 22:09:10;;;;;;;2.95;1.23;;;9.40;99.90;;;;;;5030367;28;20522;-68
2023/10/16 22:11:43;;;;;;;3.58;1.83;;;9.40;99.90;;;;;;5030224;28;20061;-67
2023/10/16 22:14:18;;;;;;;3.60;1.55;;;9.40;99.90;;;;;;5031665;28;20033;-68
2023/10/16 22:16:57;;;;;;;3.08;1.50;;;9.30;99.90;;;;;;5031172;28;20477;-68
2023/10/16 22:19:26;;;;;;;3.35;1.92;;;9.30;99.90;;;;;;5023820;28;20420;-68
2023/10/16 22:21:53;;;;;;;3.47;1.45;;;9.30;99.90;;;;;;5031062;28;20025;-68
2023/10/16 22:24:18;;;;;;;3.47;1.30;;;9.30;99.90;;;;;;5028671;28;20024;-68
2023/10/16 22:26:45;;;;;;;5.97;1.67;;;9.20;99.90;;;;;;5029515;28;20329;-68
2023/10/16 22:29:11;;;;;;;4.55;2.08;;;9.20;99.90;;;;;;5021334;28;20057;-68
2023/10/16 22:31:37;;;;;;;3.63;2.10;;;9.20;99.90;;;;;;5020275;28;20029;-68
2023/10/16 22:34:04;;;;;;;3.50;2.28;;;9.20;99.90;;;;;;5031581;28;20084;-68
2023/10/16 22:36:31;;;;;;;4.28;2.28;;;9.20;99.90;;;;;;5044216;28;20414;-68
2023/10/16 22:39:03;;;;;;;4.55;2.83;;;9.20;99.90;;;;;;5031090;28;20399;-68
2023/10/16 22:41:30;;;;;;;4.32;3.05;;;9.20;99.90;;;;;;5029622;28;20017;-68
2023/10/16 22:43:58;;;;;;;4.63;2.80;;;9.20;99.90;;;;;;5031349;28;20021;-68
2023/10/16 22:46:27;;;;;;;4.07;2.72;;;9.20;99.90;;;;;;5020088;28;20040;-68
2023/10/16 22:48:56;;;;;;;5.25;3.25;;;9.10;99.90;;;;;;5031198;28;20028;-68
2023/10/16 22:51:22;;;;;;;8.10;3.70;;;9.20;99.90;;;;;;5031141;28;20029;-68
2023/10/16 22:53:49;;;;;;;5.13;3.63;;;9.10;99.90;;;;;;5030527;28;20025;-68
2023/10/16 22:56:14;;;;;;;4.95;3.17;;;9.10;99.90;;;;;;5030762;28;20448;-68
2023/10/16 22:58:45;;;;;;;4.97;3.40;;;9.00;99.90;;;;;;5030719;28;20505;-68
2023/10/16 23:01:11;;;;;;;6.97;3.40;;;9.10;99.90;;;;;;5022598;28;20029;-68
2023/10/16 23:03:37;;;;;;;4.60;3.13;;;9.00;99.90;;;;;;5029216;28;20025;-68
2023/10/16 23:06:05;;;;;;;4.05;2.83;;;9.00;99.90;;;;;;5031085;28;20482;-68
2023/10/16 23:08:31;;;;;;;5.68;2.78;;;9.00;99.90;;;;;;5030901;28;20052;-67
2023/10/16 23:11:09;;;;;;;6.85;3.03;;;9.00;99.90;;;;;;5030876;28;20104;-68
2023/10/16 23:13:46;;;;;;;5.68;3.00;;;9.00;99.90;;;;;;5030523;28;20032;-68
2023/10/16 23:16:13;;;;;;;6.38;2.65;;;9.00;99.90;;;;;;5026387;28;20117;-68
2023/10/16 23:18:39;;;;;;;3.60;2.75;;;9.00;99.90;;;;;;5029314;28;20026;-68
2023/10/16 23:21:07;;;;;;;4.38;3.05;;;9.00;99.90;;;;;;5031171;28;20030;-68
2023/10/16 23:23:35;;;;;;;5.63;2.65;;;9.00;99.90;;;;;;5019321;28;20021;-68
2023/10/16 23:26:02;;;;;;;6.72;3.10;;;8.90;99.90;;;;;;5031208;28;20060;-68
2023/10/16 23:28:28;;;;;;;4.43;3.05;;;9.00;99.90;;;;;;5018037;28;20033;-68
2023/10/16 23:30:57;;;;;;;4.60;2.67;;;9.00;99.90;;;;;;5030739;28;20089;-68
2023/10/16 23:33:24;;;;;;;5.55;2.90;;;9.00;99.90;;;;;;5024896;28;20030;-68
2023/10/16 23:35:57;;;;;;;4.97;2.97;;;8.90;99.90;;;;;;5025116;28;20068;-68
2023/10/16 23:38:22;;;;;;;5.53;3.00;;;8.90;99.90;;;;;;5030446;28;20018;-68
2023/10/16 23:41:03;;;;;;;4.25;2.67;;;8.90;99.90;;;;;;5030796;28;20027;-68
2023/10/16 23:43:33;;;;;;;3.50;2.80;;;8.90;99.90;;;;;;5022025;28;20021;-68
2023/10/16 23:45:59;;;;;;;;;;;8.90;99.90;;;;;;5022191;28;20469;-68
2023/10/16 23:48:34;;;;;;;4.10;2.83;;;8.80;99.90;;;;;;5023160;28;19906;-68
2023/10/16 23:51:13;;;;;;;8.07;4.20;;;8.80;99.90;;;;;;5026527;28;20045;-67
2023/10/16 23:53:47;;;;;;;5.32;2.80;;;8.80;99.90;;;;;;5030459;28;20021;-67
2023/10/16 23:59:14;;;;;;;7.50;3.30;;;8.70;99.90;;;;;;5012754;28;20056;-68
